Aberdeen, SD

12:31 PM CDT on May 06, 2015 (GMT -0500)
Simmons | | Change Station
CLOSE
Current Station
Personal Weather Station
Location: Aberdeen, SD
Elevation: 1312 ft
Nearby Weather Stations

Elev 1312 ft 45.45 °N, 98.49 °W | Updated 6 minutes ago

Rain
Rain
64.8 °F
Feels Like 64.8 °F
N
2.7
Wind Variable Wind from ESE

Today
High -- | Low -- °F
--% Chance of Precip.
Yesterday
High -- | Low -- °F
Precip. -- in
6:15 AM 8:46 PM
Waning Gibbous, 93% visible
Pressure 29.79 in
Visibility 5.0 miles
Clouds Overcast 1700 ft
Dew Point 63 °F
Humidity 94%
Rainfall 0.09 in
Snow Depth Not available.
UV 3 out of 12
Pollen 5.40 out of 12
Air Quality Not available.
Flu Activity Sporadic
METAR KABR 061653Z AUTO 15017G24KT 5SM -RA BR OVC017 18/16 A2979 RMK AO2 RAB18 SLP086 P0000 T01780161

More Conditions Fewer Conditions

Pressure 29.79 in
Visibility 5.0 miles
Clouds Overcast 1700 ft
Dew Point 63 °F
Humidity 94%
Rainfall 0.09 in
Snow Depth Not available.
UV 3 out of 12
Pollen 5.40 out of 12
Air Quality Not available.
Flu Activity Sporadic
METAR KABR 061653Z AUTO 15017G24KT 5SM -RA BR OVC017 18/16 A2979 RMK AO2 RAB18 SLP086 P0000 T01780161

More Conditions Fewer Conditions

10-Day Weather Forecast

Almanac

Astronomy

May. 06, 2015 Rise Set
Actual Time
Civil Twilight
Nautical Twilight
Astronomical Twilight
Moon
Length of Visible Light
Length of Day
Tomorrow will be .
, % of the Moon is Illuminated

Today's Extremes

State Highs State Lows

Community

WunderPhotos

Upload Photos

1,818,960 photos uploaded!

WunderBlogs® & News

Nearby

Air Quality

  Air Quality AQ Index Pollutant
Not available.

Snow Depth

Station Depth Elevation

Earthquake Activity

City Distance Mag. Time & Date
Minimum magnitude displayed is 2.5.

Coastal Water Temperatures

Place Temperature

Stations

Nearby Weather Stations

Station Location Temp. Windchill Dew Point Humidity Wind Precip. Elev Updated Type